Terminal Aerodrome Forecast
Issued by NWS Tallahassee, FL

Home | Current Version | Previous Version | Text Only | Print | Product List | Glossary On
Versions: 1 2 3 4 5 6 7 8 9 10 11 12 13 14
000
FTUS42 KTAE 181120
TAFTLH
TAF
KTLH 181120Z 1812/1912 00000KT 6SM BR OVC007
     FM181400 18004KT 5SM -DZ BR OVC004
     FM181800 19005KT P6SM VCSH BKN015
     FM190200 00000KT 1SM BR OVC002=

USA.gov is the U.S. government's official web portal to all federal, state and local government web resources and services.